createdAt,value
2022-11-25T00:01:31.724Z,85.25
2022-11-25T00:03:59.521Z,86.51
2022-11-25T00:06:29.485Z,87.31
2022-11-25T00:09:08.544Z,87.94
2022-11-25T00:11:36.924Z,87.69
2022-11-25T00:14:04.569Z,87.74
2022-11-25T00:16:31.723Z,86.62
2022-11-25T00:18:59.229Z,87.96
2022-11-25T00:21:29.337Z,86.71
2022-11-25T00:24:00.958Z,87.71
2022-11-25T00:26:29.483Z,87.21
2022-11-25T00:28:59.878Z,88.41
2022-11-25T00:31:32.794Z,89.27
2022-11-25T00:33:59.766Z,89.84
2022-11-25T00:36:32.349Z,89.29
2022-11-25T00:39:03.533Z,89.80
2022-11-25T00:41:50.102Z,90.13
2022-11-25T00:44:38.406Z,90.36
2022-11-25T00:47:12.417Z,90.48
2022-11-25T00:49:41.391Z,91.26
2022-11-25T00:52:09.593Z,91.16
2022-11-25T00:54:36.808Z,91.77
2022-11-25T00:57:04.147Z,91.58
2022-11-25T00:59:31.178Z,91.57
2022-11-25T01:02:00.209Z,91.61
2022-11-25T01:04:27.249Z,93.39
2022-11-25T01:06:56.816Z,93.16
2022-11-25T01:09:24.000Z,93.30
2022-11-25T01:11:51.651Z,93.87
2022-11-25T01:14:19.534Z,93.79
2022-11-25T01:16:48.076Z,95.42
2022-11-25T01:19:16.359Z,95.48
2022-11-25T01:21:43.536Z,95.06
2022-11-25T01:24:16.095Z,97.14
2022-11-25T01:26:44.534Z,95.29
2022-11-25T01:29:16.896Z,96.23
2022-11-25T01:31:45.124Z,94.70
2022-11-25T01:34:20.659Z,95.74
2022-11-25T01:36:48.227Z,96.08
2022-11-25T01:39:21.129Z,96.17
2022-11-25T01:41:49.018Z,94.78
2022-11-25T01:44:17.295Z,95.73
2022-11-25T01:46:47.277Z,95.13
2022-11-25T01:49:24.308Z,93.94
2022-11-25T01:52:01.611Z,95.17
2022-11-25T01:54:33.458Z,94.23
2022-11-25T01:57:08.893Z,94.61
2022-11-25T01:59:42.845Z,94.00
2022-11-25T02:02:10.424Z,94.37
2022-11-25T02:04:39.537Z,93.93
2022-11-25T02:07:41.328Z,94.06
2022-11-25T02:10:14.531Z,94.69
2022-11-25T02:12:45.708Z,94.80
2022-11-25T02:15:13.869Z,94.40
2022-11-25T02:17:42.245Z,93.16
2022-11-25T02:20:20.685Z,92.84
2022-11-25T02:23:19.674Z,93.72
2022-11-25T02:25:47.638Z,92.39
2022-11-25T02:28:37.495Z,93.51
2022-11-25T02:31:07.821Z,93.49
2022-11-25T02:33:36.597Z,94.12
2022-11-25T02:36:07.157Z,92.61
2022-11-25T02:38:47.818Z,91.04
2022-11-25T02:41:19.804Z,91.15
2022-11-25T02:43:51.612Z,91.74
2022-11-25T02:46:23.652Z,90.96
2022-11-25T02:49:09.347Z,90.44
2022-11-25T02:51:38.262Z,90.24
2022-11-25T02:54:05.510Z,91.57
2022-11-25T02:56:35.195Z,91.10
2022-11-25T02:59:02.874Z,92.44
2022-11-25T03:01:35.366Z,91.00
2022-11-25T03:04:05.914Z,91.50
2022-11-25T03:06:33.380Z,92.17
2022-11-25T03:09:00.523Z,92.43
2022-11-25T03:11:46.283Z,92.05
2022-11-25T03:14:14.886Z,92.70
2022-11-25T03:16:43.087Z,92.30
2022-11-25T03:19:10.129Z,92.38
2022-11-25T03:21:36.977Z,92.01
2022-11-25T03:24:04.058Z,92.33
2022-11-25T03:26:31.410Z,93.42
2022-11-25T03:28:58.407Z,92.60
2022-11-25T03:31:25.387Z,91.97
2022-11-25T03:33:52.481Z,92.18
2022-11-25T03:36:21.240Z,90.26
2022-11-25T03:38:48.389Z,89.95
2022-11-25T03:41:15.280Z,89.82
2022-11-25T03:43:42.393Z,91.48
2022-11-25T03:46:09.356Z,89.90
2022-11-25T03:48:36.638Z,89.18
2022-11-25T03:51:03.828Z,89.93
2022-11-25T03:53:30.762Z,92.07
2022-11-25T03:56:00.135Z,92.94
2022-11-25T03:58:27.088Z,92.75
2022-11-25T04:00:55.293Z,93.45
2022-11-25T04:03:22.496Z,94.01
2022-11-25T04:05:49.379Z,94.56
2022-11-25T04:08:16.713Z,93.98
2022-11-25T04:10:45.245Z,93.88
2022-11-25T04:13:12.580Z,93.86
2022-11-25T04:15:49.842Z,94.51
2022-11-25T04:18:19.738Z,94.19
2022-11-25T04:20:50.148Z,94.10
2022-11-25T04:23:17.155Z,94.34
2022-11-25T04:25:54.877Z,94.68
2022-11-25T04:28:31.123Z,94.26
2022-11-25T04:30:58.396Z,94.45
2022-11-25T04:33:25.546Z,94.94
2022-11-25T04:35:53.200Z,94.60
2022-11-25T04:38:20.883Z,94.57
2022-11-25T04:40:48.719Z,93.44
2022-11-25T04:43:21.979Z,93.49
2022-11-25T04:46:15.953Z,93.54
2022-11-25T04:48:46.709Z,94.24
2022-11-25T04:51:15.372Z,94.18
2022-11-25T04:53:44.103Z,94.56
2022-11-25T04:56:18.731Z,95.45
2022-11-25T04:59:05.400Z,95.71
2022-11-25T05:01:33.987Z,96.43
2022-11-25T05:04:10.547Z,96.57
2022-11-25T05:06:37.753Z,96.86
2022-11-25T05:09:05.816Z,97.47
2022-11-25T05:11:38.033Z,97.64
2022-11-25T05:14:05.536Z,97.44
2022-11-25T05:16:32.915Z,97.79
2022-11-25T05:19:00.520Z,97.92
2022-11-25T05:21:27.605Z,97.46
2022-11-25T05:23:56.079Z,97.27
2022-11-25T05:26:24.447Z,96.61
2022-11-25T05:28:53.905Z,96.49
2022-11-25T05:31:21.058Z,94.07
2022-11-25T05:33:48.846Z,92.73
2022-11-25T05:36:16.980Z,91.69
2022-11-25T05:38:46.395Z,89.69
2022-11-25T05:41:18.811Z,89.29
2022-11-25T05:43:47.332Z,90.72
2022-11-25T05:46:14.945Z,92.85
2022-11-25T05:48:53.397Z,94.61
2022-11-25T05:51:20.889Z,94.56
2022-11-25T05:53:48.225Z,95.19
2022-11-25T05:56:15.360Z,95.29
2022-11-25T05:59:05.834Z,95.52
2022-11-25T06:01:57.590Z,96.11
2022-11-25T06:04:24.921Z,96.48
2022-11-25T06:06:51.913Z,95.13
2022-11-25T06:09:18.938Z,96.05
2022-11-25T06:11:45.860Z,95.63
2022-11-25T06:14:12.788Z,95.53
2022-11-25T06:16:41.293Z,95.19
2022-11-25T06:19:22.951Z,95.27
2022-11-25T06:21:49.847Z,95.69
2022-11-25T06:24:16.936Z,94.84
2022-11-25T06:26:46.048Z,95.07
2022-11-25T06:29:12.923Z,94.94
2022-11-25T06:31:43.105Z,94.41
2022-11-25T06:34:27.918Z,94.52
2022-11-25T06:36:55.172Z,95.08
2022-11-25T06:39:22.067Z,95.38
2022-11-25T06:41:48.949Z,94.74
2022-11-25T06:44:15.951Z,95.45
2022-11-25T06:46:42.945Z,94.49
2022-11-25T06:49:09.955Z,94.33
2022-11-25T06:51:36.825Z,94.66
2022-11-25T06:54:03.896Z,91.95
2022-11-25T06:56:30.856Z,91.69
2022-11-25T06:58:57.797Z,92.61
2022-11-25T07:01:29.721Z,92.49
2022-11-25T07:04:03.429Z,91.40
2022-11-25T07:06:32.041Z,90.52
2022-11-25T07:08:59.357Z,86.84
2022-11-25T07:11:29.396Z,88.68
2022-11-25T07:13:59.129Z,83.09
2022-11-25T07:16:27.397Z,81.03
2022-11-25T07:18:54.795Z,77.56
2022-11-25T07:21:25.484Z,79.36
2022-11-25T07:23:53.116Z,76.39
2022-11-25T07:26:25.357Z,76.65
2022-11-25T07:28:54.005Z,76.64
2022-11-25T07:31:31.750Z,78.96
2022-11-25T07:34:12.387Z,78.11
2022-11-25T07:36:39.632Z,84.03
2022-11-25T07:39:09.511Z,87.10
2022-11-25T07:41:36.771Z,87.78
2022-11-25T07:44:06.102Z,88.94
2022-11-25T07:46:47.455Z,89.72
2022-11-25T07:49:21.026Z,89.23
2022-11-25T07:51:56.800Z,87.18
2022-11-25T07:54:24.491Z,85.82
2022-11-25T07:56:51.951Z,84.78
2022-11-25T07:59:22.108Z,81.58
2022-11-25T08:01:54.091Z,82.09
2022-11-25T08:04:21.719Z,78.09
2022-11-25T08:06:51.092Z,77.18
2022-11-25T08:09:21.605Z,76.24
2022-11-25T08:11:49.520Z,80.22
2022-11-25T08:14:17.630Z,82.59
2022-11-25T08:16:44.910Z,80.92
2022-11-25T08:19:14.545Z,80.92
2022-11-25T08:21:42.621Z,82.00
2022-11-25T08:24:16.833Z,82.01
2022-11-25T08:26:44.197Z,80.60
2022-11-25T08:29:15.423Z,80.25
2022-11-25T08:31:43.412Z,84.43
2022-11-25T08:34:18.522Z,85.54
2022-11-25T08:36:48.654Z,87.96
2022-11-25T08:39:44.143Z,87.12
2022-11-25T08:42:06.109Z,87.33
2022-11-25T08:44:33.112Z,89.58
2022-11-25T08:47:00.167Z,89.38
2022-11-25T08:49:29.409Z,87.62
2022-11-25T08:51:56.373Z,89.15
2022-11-25T08:54:23.277Z,90.42
2022-11-25T08:56:50.248Z,90.10
2022-11-25T08:59:17.145Z,89.04
2022-11-25T09:01:44.383Z,90.35
2022-11-25T09:04:11.548Z,89.82
2022-11-25T09:06:39.218Z,89.77
2022-11-25T09:09:06.908Z,89.30
2022-11-25T09:11:33.943Z,89.26
2022-11-25T09:14:00.923Z,87.85
2022-11-25T09:16:28.444Z,87.69
2022-11-25T09:18:56.388Z,87.28
2022-11-25T09:21:25.044Z,88.32
2022-11-25T09:23:54.110Z,87.56
2022-11-25T09:26:22.574Z,90.25
2022-11-25T09:28:49.739Z,89.69
2022-11-25T09:31:17.470Z,85.89
2022-11-25T09:33:45.156Z,84.71
2022-11-25T09:36:13.816Z,84.24
2022-11-25T09:38:44.212Z,83.79
2022-11-25T09:41:39.750Z,83.70
2022-11-25T09:44:41.594Z,81.91
2022-11-25T09:47:32.758Z,81.58
2022-11-25T09:49:59.587Z,83.42
2022-11-25T09:52:50.883Z,88.01
2022-11-25T09:55:22.260Z,88.43
2022-11-25T09:58:20.640Z,84.98
2022-11-25T10:00:50.245Z,83.55
2022-11-25T10:03:22.850Z,81.06
2022-11-25T10:05:53.841Z,81.38
2022-11-25T10:08:25.538Z,81.62
2022-11-25T10:11:17.115Z,84.35
2022-11-25T10:14:04.358Z,83.85
2022-11-25T10:16:51.146Z,85.57
2022-11-25T10:19:47.449Z,87.73
2022-11-25T10:22:22.875Z,88.32
2022-11-25T10:24:51.566Z,89.03
2022-11-25T10:27:36.376Z,87.84
2022-11-25T10:30:14.568Z,88.31
2022-11-25T10:32:46.730Z,88.45
2022-11-25T10:35:34.116Z,87.59
2022-11-25T10:38:04.062Z,87.16
2022-11-25T10:40:31.267Z,85.14
2022-11-25T10:42:59.173Z,85.11
2022-11-25T10:45:37.150Z,83.32
2022-11-25T10:48:41.321Z,84.37
2022-11-25T10:51:38.436Z,83.84
2022-11-25T10:54:12.743Z,83.84
2022-11-25T10:56:53.995Z,81.07
2022-11-25T10:59:34.810Z,81.76
2022-11-25T11:02:13.627Z,80.56
2022-11-25T11:05:09.743Z,78.67
2022-11-25T11:07:39.589Z,78.25
2022-11-25T11:10:23.937Z,79.19
2022-11-25T11:12:59.139Z,79.02
2022-11-25T11:15:42.467Z,79.72
2022-11-25T11:18:24.118Z,80.25
2022-11-25T11:20:54.316Z,81.13
2022-11-25T11:23:21.345Z,80.82
2022-11-25T11:26:20.089Z,81.20
2022-11-25T11:28:47.554Z,80.33
2022-11-25T11:31:23.200Z,79.56
2022-11-25T11:33:59.285Z,78.88
2022-11-25T11:36:50.762Z,78.51
2022-11-25T11:39:38.298Z,80.79
2022-11-25T11:42:26.942Z,81.67
2022-11-25T11:45:24.783Z,82.70
2022-11-25T11:48:21.347Z,82.69
2022-11-25T11:50:57.735Z,82.82
2022-11-25T11:53:36.673Z,83.33
2022-11-25T11:56:36.261Z,83.12
2022-11-25T11:59:30.802Z,82.73
2022-11-25T12:02:15.787Z,84.48
2022-11-25T12:05:10.837Z,86.23
2022-11-25T12:07:52.864Z,87.93
2022-11-25T12:10:24.210Z,88.15
2022-11-25T12:12:57.002Z,87.70
2022-11-25T12:15:49.525Z,88.48
2022-11-25T12:18:44.776Z,87.83
2022-11-25T12:21:45.581Z,89.07
2022-11-25T12:24:21.185Z,90.71
2022-11-25T12:26:57.061Z,90.10
2022-11-25T12:29:42.767Z,90.65
2022-11-25T12:32:24.880Z,90.71
2022-11-25T12:34:58.716Z,90.88
2022-11-25T12:37:51.047Z,90.15
2022-11-25T12:40:20.395Z,90.97
2022-11-25T12:42:49.597Z,90.94
2022-11-25T12:45:22.081Z,90.92
2022-11-25T12:47:49.012Z,89.62
2022-11-25T12:50:20.948Z,90.98
2022-11-25T12:53:15.992Z,91.62
2022-11-25T12:55:42.977Z,91.26
2022-11-25T12:58:33.100Z,92.04
2022-11-25T13:01:12.100Z,91.91
2022-11-25T13:03:51.007Z,90.50
2022-11-25T13:06:44.145Z,90.48
2022-11-25T13:09:14.007Z,90.86
2022-11-25T13:12:04.919Z,91.27
2022-11-25T13:15:04.408Z,91.61
2022-11-25T13:17:38.008Z,91.77
2022-11-25T13:20:29.580Z,90.80
2022-11-25T13:23:05.637Z,91.09
2022-11-25T13:25:33.887Z,92.28
2022-11-25T13:28:03.363Z,91.99
2022-11-25T13:30:32.979Z,91.43
2022-11-25T13:33:12.010Z,91.77
2022-11-25T13:35:50.445Z,91.62
2022-11-25T13:38:29.367Z,91.99
2022-11-25T13:41:00.583Z,92.36
2022-11-25T13:43:28.037Z,92.37
2022-11-25T13:45:56.196Z,92.08
2022-11-25T13:48:31.266Z,92.07
2022-11-25T13:51:16.888Z,92.74
2022-11-25T13:54:01.326Z,92.67
2022-11-25T13:56:36.801Z,93.85
2022-11-25T13:59:14.062Z,94.07
2022-11-25T14:01:52.079Z,93.08
2022-11-25T14:04:44.078Z,92.79
2022-11-25T14:07:30.313Z,93.56
2022-11-25T14:10:16.341Z,92.00
2022-11-25T14:13:18.055Z,91.91
2022-11-25T14:16:07.201Z,90.94
2022-11-25T14:21:50.759Z,92.80
2022-11-25T14:24:41.623Z,93.22
2022-11-25T14:27:22.565Z,93.32
2022-11-25T14:30:06.535Z,94.07
2022-11-25T14:32:48.593Z,93.22
2022-11-25T14:35:20.780Z,93.08
2022-11-25T14:37:52.690Z,94.05
2022-11-25T14:40:30.626Z,93.46
2022-11-25T14:43:07.969Z,92.77
2022-11-25T14:45:35.851Z,94.17
2022-11-25T14:48:24.343Z,93.94
2022-11-25T14:51:00.318Z,93.24
2022-11-25T14:53:28.842Z,94.29
2022-11-25T14:56:00.160Z,93.71
2022-11-25T14:58:27.708Z,95.43
2022-11-25T15:00:57.794Z,96.37
2022-11-25T15:03:25.062Z,96.08
2022-11-25T15:05:57.677Z,97.08
2022-11-25T15:08:25.698Z,98.14
2022-11-25T15:10:59.104Z,97.93
2022-11-25T15:13:41.312Z,98.40
2022-11-25T15:16:11.813Z,98.83
2022-11-25T15:18:43.898Z,98.65
2022-11-25T15:21:14.906Z,98.74
2022-11-25T15:23:41.856Z,99.59
2022-11-25T15:26:21.217Z,97.87
2022-11-25T15:29:04.847Z,97.94
2022-11-25T15:31:34.771Z,99.02
2022-11-25T15:34:04.923Z,98.34
2022-11-25T15:36:31.985Z,98.63
2022-11-25T15:39:13.940Z,99.94
2022-11-25T15:41:43.386Z,98.80
2022-11-25T15:44:20.007Z,97.82
2022-11-25T15:46:55.925Z,99.13
2022-11-25T15:49:23.190Z,98.85
2022-11-25T15:51:55.369Z,97.88
2022-11-25T15:54:32.178Z,97.07
2022-11-25T15:57:14.718Z,95.73
2022-11-25T16:00:02.325Z,95.48
2022-11-25T16:02:42.297Z,96.10
2022-11-25T16:05:15.203Z,95.92
2022-11-25T16:07:51.523Z,95.40
2022-11-25T16:10:26.895Z,95.10
2022-11-25T16:13:30.085Z,96.43
2022-11-25T16:16:12.109Z,96.58
2022-11-25T16:18:57.155Z,97.30
2022-11-25T16:21:38.904Z,97.39
2022-11-25T16:24:05.811Z,94.69
2022-11-25T16:26:38.674Z,94.72
2022-11-25T16:29:17.602Z,94.30
2022-11-25T16:31:44.671Z,93.64
2022-11-25T16:34:22.040Z,92.14
2022-11-25T16:36:48.960Z,90.93
2022-11-25T16:39:16.079Z,91.33
2022-11-25T16:41:46.332Z,91.98
2022-11-25T16:44:19.371Z,93.64
2022-11-25T16:46:46.376Z,93.43
2022-11-25T16:49:14.658Z,93.91
2022-11-25T16:51:42.024Z,91.28
2022-11-25T16:54:08.977Z,90.52
2022-11-25T16:56:41.965Z,88.61
2022-11-25T16:59:22.735Z,88.54
2022-11-25T17:01:49.784Z,89.44
2022-11-25T17:04:17.702Z,88.55
2022-11-25T17:06:50.545Z,89.19
2022-11-25T17:09:21.060Z,89.66
2022-11-25T17:11:54.783Z,89.88
2022-11-25T17:14:28.319Z,87.83
2022-11-25T17:16:55.483Z,89.60
2022-11-25T17:19:22.560Z,88.69
2022-11-25T17:21:49.526Z,87.86
2022-11-25T17:24:22.588Z,87.54
2022-11-25T17:27:00.690Z,88.42
2022-11-25T17:29:48.210Z,88.99
2022-11-25T17:32:16.412Z,86.66
2022-11-25T17:34:43.426Z,88.39
2022-11-25T17:37:18.459Z,87.99
2022-11-25T17:39:45.486Z,87.95
2022-11-25T17:42:17.505Z,86.57
2022-11-25T17:44:49.844Z,87.77
2022-11-25T17:47:19.570Z,87.94
2022-11-25T17:49:46.477Z,88.38
2022-11-25T17:52:13.316Z,87.25
2022-11-25T17:54:40.522Z,88.46
2022-11-25T17:57:11.318Z,88.64
2022-11-25T17:59:38.537Z,87.22
2022-11-25T18:02:18.516Z,84.78
2022-11-25T18:04:45.730Z,87.39
2022-11-25T18:07:12.780Z,87.75
2022-11-25T18:09:40.339Z,88.59
2022-11-25T18:12:10.955Z,89.49
2022-11-25T18:14:40.921Z,89.68
2022-11-25T18:17:11.619Z,91.09
2022-11-25T18:19:38.536Z,91.48
2022-11-25T18:22:14.479Z,89.96
2022-11-25T18:24:42.015Z,88.86
2022-11-25T18:27:21.822Z,88.70
2022-11-25T18:29:49.094Z,90.62
2022-11-25T18:32:16.074Z,89.90
2022-11-25T18:34:43.036Z,91.16
2022-11-25T18:37:12.064Z,91.30
2022-11-25T18:39:39.294Z,90.44
2022-11-25T18:42:07.132Z,90.33
2022-11-25T18:44:43.728Z,91.77
2022-11-25T18:47:13.868Z,91.42
2022-11-25T18:49:40.823Z,91.08
2022-11-25T18:52:07.817Z,89.24
2022-11-25T18:54:35.059Z,89.85
2022-11-25T18:57:02.364Z,90.88
2022-11-25T18:59:34.925Z,91.90
2022-11-25T19:02:02.169Z,92.67
2022-11-25T19:04:29.133Z,92.35
2022-11-25T19:06:56.033Z,92.70
2022-11-25T19:09:22.924Z,93.60
2022-11-25T19:11:55.347Z,92.94
2022-11-25T19:14:36.051Z,92.99
2022-11-25T19:17:07.649Z,94.00
2022-11-25T19:19:36.590Z,94.87
2022-11-25T19:22:10.113Z,94.32
2022-11-25T19:24:37.157Z,94.99
2022-11-25T19:27:04.393Z,95.78
2022-11-25T19:29:41.629Z,94.63
2022-11-25T19:32:22.007Z,95.32
2022-11-25T19:34:53.501Z,94.71
2022-11-25T19:37:22.026Z,93.77
2022-11-25T19:39:53.194Z,94.09
2022-11-25T19:42:20.439Z,94.33
2022-11-25T19:44:47.609Z,95.56
2022-11-25T19:47:24.111Z,95.13
2022-11-25T19:49:54.693Z,94.65
2022-11-25T19:52:24.193Z,95.09
2022-11-25T19:54:51.123Z,95.59
2022-11-25T19:57:21.230Z,95.42
2022-11-25T19:59:48.663Z,94.97
2022-11-25T20:02:19.730Z,95.65
2022-11-25T20:04:49.101Z,94.17
2022-11-25T20:07:19.506Z,94.14
2022-11-25T20:09:47.855Z,94.02
2022-11-25T20:12:30.845Z,93.47
2022-11-25T20:14:57.715Z,93.22
2022-11-25T20:17:34.221Z,93.08
2022-11-25T20:20:25.800Z,92.57
2022-11-25T20:23:11.055Z,94.87
2022-11-25T20:25:44.510Z,93.58
2022-11-25T20:28:23.558Z,93.06
2022-11-25T20:30:52.380Z,93.23
2022-11-25T20:33:24.045Z,92.17
2022-11-25T20:35:59.768Z,92.29
2022-11-25T20:38:30.136Z,92.03
2022-11-25T20:40:58.952Z,90.90
2022-11-25T20:43:39.165Z,90.09
2022-11-25T20:46:12.593Z,90.22
2022-11-25T20:48:39.608Z,89.51
2022-11-25T20:51:12.990Z,89.87
2022-11-25T20:53:43.666Z,89.46
2022-11-25T20:56:14.827Z,89.29
2022-11-25T20:58:42.051Z,87.78
2022-11-25T21:01:09.636Z,87.86
2022-11-25T21:03:36.591Z,86.81
2022-11-25T21:06:16.995Z,86.19
2022-11-25T21:08:47.711Z,87.38
2022-11-25T21:11:15.253Z,86.37
2022-11-25T21:13:42.621Z,86.07
2022-11-25T21:16:09.533Z,86.37
2022-11-25T21:18:36.481Z,86.30
2022-11-25T21:21:04.016Z,85.25
2022-11-25T21:23:35.304Z,84.57
2022-11-25T21:26:06.336Z,84.07
2022-11-25T21:28:37.686Z,82.31
2022-11-25T21:31:09.829Z,83.09
2022-11-25T21:33:38.040Z,84.05
2022-11-25T21:36:05.131Z,83.62
2022-11-25T21:38:32.056Z,83.22
2022-11-25T21:40:58.919Z,83.06
2022-11-25T21:43:34.066Z,83.32
2022-11-25T21:46:07.389Z,83.08
2022-11-25T21:48:34.379Z,83.28
2022-11-25T21:51:01.391Z,81.80
2022-11-25T21:53:30.098Z,81.64
2022-11-25T21:56:01.485Z,81.37
2022-11-25T21:58:30.313Z,82.34
2022-11-25T22:01:00.345Z,81.84
2022-11-25T22:03:31.069Z,81.30
2022-11-25T22:05:58.152Z,80.86
2022-11-25T22:08:25.077Z,81.60
2022-11-25T22:10:54.790Z,81.25
2022-11-25T22:13:27.570Z,81.52
2022-11-25T22:15:57.803Z,82.71
2022-11-25T22:18:36.132Z,81.34
2022-11-25T22:21:03.673Z,80.71
2022-11-25T22:23:30.524Z,81.22
2022-11-25T22:25:57.680Z,80.82
2022-11-25T22:28:27.838Z,80.61
2022-11-25T22:30:57.586Z,80.65
2022-11-25T22:33:30.686Z,79.59
2022-11-25T22:35:57.902Z,79.80
2022-11-25T22:38:24.959Z,79.67
2022-11-25T22:40:56.653Z,79.48
2022-11-25T22:43:28.472Z,78.49
2022-11-25T22:45:56.105Z,78.00
2022-11-25T22:48:35.240Z,77.88
2022-11-25T22:51:02.464Z,78.89
2022-11-25T22:53:29.695Z,79.47
2022-11-25T22:55:56.985Z,80.33
2022-11-25T22:58:25.770Z,79.16
2022-11-25T23:00:52.806Z,79.19
2022-11-25T23:03:33.452Z,78.10
2022-11-25T23:06:02.169Z,76.52
2022-11-25T23:08:31.756Z,74.74
2022-11-25T23:10:59.155Z,75.15
2022-11-25T23:13:26.059Z,73.87
2022-11-25T23:15:55.831Z,74.06
2022-11-25T23:18:39.030Z,75.26
2022-11-25T23:21:14.427Z,75.51
2022-11-25T23:23:41.117Z,74.76
2022-11-25T23:26:10.737Z,73.49
2022-11-25T23:28:37.700Z,74.16
2022-11-25T23:31:05.758Z,73.75
2022-11-25T23:33:55.866Z,73.47
2022-11-25T23:36:29.981Z,74.78
2022-11-25T23:39:02.523Z,74.36
2022-11-25T23:41:32.031Z,75.93
2022-11-25T23:44:06.225Z,76.55
2022-11-25T23:46:36.543Z,75.90
2022-11-25T23:49:06.722Z,74.82
2022-11-25T23:51:33.940Z,74.08
2022-11-25T23:54:00.874Z,74.42
2022-11-25T23:56:28.645Z,74.33
2022-11-25T23:58:55.534Z,75.84
